Streatham, United Kingdom
Current Conditions -  °F | °C
As of 1:20 AM on Friday 28 Nov 2014 (Local Time) from EGLC Reporting Station
Haze Haze  
Wind Chill: 50°   Ceiling: 1200
Heat Index: 50°   Visibility: 2.3mi
Dew Point: 48°   Wind: 10mph
Humidity: 94%   Direction: 100°E
Pressure: 29.59"   Gusts: NA
Location:  51.44°N, 0.13°W
Report Text: EGLC 280120Z AUTO 10009KT 3700 BR FEW004/// BKN012/// 10/09 Q1002
Loading
Personal Weather Stations






























Interactive Weather Map New forecast layout! Learn more

10-Day Weather Forecast

Advertisements
Track Severe Weather on mobile